Time;durP1;ratioP1;P1;durP2;ratioP2;P2;SDS_P1;SDS_P2;PMS_P1;PMS_P2;Temp;Humidity;BMP_temperature;BMP_pressure;BME280_temperature;BME280_humidity;BME280_pressure;Samples;Min_cycle;Max_cycle;Signal;HPM_P1;HPM_P2
2021/07/25 00:05:08;;;;;;;;;2.00;2.00;;;;;23.30;100.00;100513.03;4958567;28;45419;-70
2021/07/25 00:07:34;;;;;;;;;3.00;2.00;;;;;23.26;100.00;100504.41;4959539;28;45622;-70
2021/07/25 00:10:03;;;;;;;;;2.00;2.00;;;;;23.23;100.00;100520.59;4959729;28;45431;-70
2021/07/25 00:12:29;;;;;;;;;1.50;1.50;;;;;23.19;100.00;100509.31;4959617;28;45337;-71
2021/07/25 00:14:55;;;;;;;;;1.50;1.50;;;;;23.17;100.00;100508.56;4958991;28;46529;-70
2021/07/25 00:17:20;;;;;;;;;2.75;2.00;;;;;23.07;100.00;100504.84;4959462;28;45348;-70
2021/07/25 00:19:45;;;;;;;;;2.00;2.00;;;;;23.09;100.00;100504.75;4959460;28;45309;-70
2021/07/25 00:22:11;;;;;;;;;3.00;2.00;;;;;23.02;100.00;100500.81;4959726;28;45282;-70
2021/07/25 00:24:38;;;;;;;;;2.75;2.50;;;;;23.07;100.00;100510.16;4959160;28;47452;-71
2021/07/25 00:27:05;;;;;;;;;2.75;2.50;;;;;23.07;100.00;100517.31;4959533;28;45318;-70
2021/07/25 00:29:30;;;;;;;;;2.75;2.25;;;;;23.00;100.00;100500.06;4959197;28;45399;-70
2021/07/25 00:32:04;;;;;;;;;2.00;1.50;;;;;23.03;100.00;100513.16;4959686;28;45304;-70
2021/07/25 00:34:33;;;;;;;;;3.25;3.00;;;;;22.98;100.00;100507.31;4958967;28;45579;-69
2021/07/25 00:36:59;;;;;;;;;2.75;2.75;;;;;22.95;100.00;100513.69;4959096;28;45308;-70
2021/07/25 00:39:25;;;;;;;;;2.25;2.25;;;;;22.90;100.00;100499.84;4941514;28;45342;-70
2021/07/25 00:41:51;;;;;;;;;3.75;1.75;;;;;22.81;100.00;100497.78;4959452;28;45738;-69
2021/07/25 00:44:18;;;;;;;;;1.00;0.00;;;;;22.80;100.00;100504.91;4958802;28;46346;-70
2021/07/25 00:46:55;;;;;;;;;2.00;2.00;;;;;22.75;100.00;100503.53;4959136;28;45341;-70
2021/07/25 00:49:21;;;;;;;;;1.00;1.00;;;;;22.72;100.00;100503.75;4958982;28;45460;-70
2021/07/25 00:51:46;;;;;;;;;2.75;2.00;;;;;22.64;100.00;100490.97;4959380;28;45337;-70
2021/07/25 00:54:13;;;;;;;;;1.00;1.00;;;;;22.65;100.00;100505.13;4958868;28;46009;-70
2021/07/25 00:56:39;;;;;;;;;2.50;2.00;;;;;22.49;100.00;100482.22;4959058;28;45303;-70
2021/07/25 01:05:14;;;;;;;;;2.00;2.00;;;;;22.45;100.00;100490.53;4957462;28;45510;-70
2021/07/25 01:08:23;;;;;;;;;2.25;1.50;;;;;22.35;100.00;100482.28;4958593;28;45553;-70
2021/07/25 01:10:52;;;;;;;;;2.00;2.00;;;;;22.39;100.00;100497.09;4861720;29;45525;-70
2021/07/25 01:13:23;;;;;;;;;2.75;2.00;;;;;22.14;100.00;100457.97;4861706;29;45513;-70
2021/07/25 01:19:10;;;;;;;;;2.00;1.50;;;;;22.28;100.00;100475.69;4860935;29;45483;-70
2021/07/25 01:21:35;;;;;;;;;1.00;1.00;;;;;22.28;100.00;100484.53;4861382;29;45419;-70
2021/07/25 01:24:01;;;;;;;;;1.00;1.00;;;;;22.24;100.00;100479.50;4860559;29;45448;-70
2021/07/25 01:26:29;;;;;;;;;2.25;2.25;;;;;22.34;100.00;100485.06;4860866;29;46797;-71
2021/07/25 01:28:58;;;;;;;;;1.00;1.00;;;;;22.24;100.00;100468.88;4860976;29;45408;-70
2021/07/25 01:34:46;;;;;;;;;1.00;1.00;;;;;22.29;100.00;100486.22;4861132;29;45374;-70
2021/07/25 01:37:13;;;;;;;;;3.00;1.75;;;;;22.25;100.00;100478.56;4860961;29;46695;-70
2021/07/25 01:39:38;;;;;;;;;1.00;1.00;;;;;22.16;100.00;100472.03;4860872;29;45540;-70
2021/07/25 01:42:04;;;;;;;;;3.25;2.00;;;;;22.26;100.00;100489.09;4860966;29;45578;-70
2021/07/25 01:44:29;;;;;;;;;2.00;1.00;;;;;22.20;100.00;100486.00;4861382;29;45423;-70
2021/07/25 01:46:55;;;;;;;;;1.00;1.00;;;;;22.15;100.00;100483.63;4937052;28;45403;-70
2021/07/25 01:49:20;;;;;;;;;1.75;1.75;;;;;22.09;100.00;100496.47;4957848;28;45312;-70
2021/07/25 01:51:45;;;;;;;;;2.50;2.00;;;;;22.01;100.00;100484.53;4958146;28;45301;-71
2021/07/25 01:54:11;;;;;;;;;2.25;1.75;;;;;21.96;100.00;100489.28;4958136;28;45581;-70
2021/07/25 01:56:36;;;;;;;;;3.00;2.00;;;;;21.82;100.00;100467.22;4958105;28;45289;-70
2021/07/25 01:59:01;;;;;;;;;2.00;2.00;;;;;21.80;100.00;100487.72;4957637;28;45242;-70
2021/07/25 02:04:49;;;;;;;;;3.00;2.75;;;;;21.79;100.00;100483.38;4957864;28;45305;-70
2021/07/25 02:07:14;;;;;;;;;1.25;1.25;;;;;21.78;100.00;100489.63;4958088;28;45418;-70
2021/07/25 02:09:40;;;;;;;;;2.25;1.75;;;;;21.75;100.00;100476.53;4957647;28;45332;-71
2021/07/25 02:12:07;;;;;;;;;1.75;1.25;;;;;21.73;100.00;100475.75;4957954;28;45215;-71
2021/07/25 02:14:34;;;;;;;;;2.50;1.50;;;;;21.78;100.00;100473.69;4958011;28;45504;-70
2021/07/25 02:17:00;;;;;;;;;2.00;2.00;;;;;21.78;100.00;100479.84;4957491;28;47651;-70
2021/07/25 02:19:26;;;;;;;;;2.75;2.25;;;;;21.75;100.00;100479.19;4957773;28;45629;-71
2021/07/25 02:21:52;;;;;;;;;3.75;2.75;;;;;21.65;100.00;100460.31;4957876;28;45515;-70
2021/07/25 02:24:19;;;;;;;;;2.50;2.50;;;;;21.68;100.00;100476.91;4958224;28;45502;-71
2021/07/25 02:26:46;;;;;;;;;3.25;2.25;;;;;21.66;100.00;100476.16;4957374;28;45529;-71
2021/07/25 02:29:11;;;;;;;;;4.75;4.00;;;;;21.63;100.00;100479.03;4957542;28;45384;-71
2021/07/25 02:34:58;;;;;;;;;3.50;3.00;;;;;21.58;100.00;100459.03;4958014;28;45489;-70
2021/07/25 02:37:23;;;;;;;;;2.00;2.00;;;;;21.57;100.00;100460.84;4961085;28;46466;-70
2021/07/25 02:39:49;;;;;;;;;1.50;1.50;;;;;21.58;100.00;100457.22;4961075;28;45386;-71
2021/07/25 02:42:14;;;;;;;;;2.00;2.00;;;;;21.66;100.00;100465.53;4960877;28;45338;-70
2021/07/25 02:44:39;;;;;;;;;4.50;2.50;;;;;21.65;100.00;100460.31;4961124;28;45211;-71
2021/07/25 02:50:26;;;;;;;;;2.25;2.00;;;;;21.64;100.00;100459.47;4960276;28;45393;-70
2021/07/25 02:52:52;;;;;;;;;1.00;1.00;;;;;21.62;100.00;100452.56;4960714;28;45614;-71
2021/07/25 02:55:17;;;;;;;;;3.00;2.50;;;;;21.55;100.00;100441.47;4961126;28;45347;-71
2021/07/25 02:57:43;;;;;;;;;4.00;2.75;;;;;21.62;100.00;100458.72;4960861;28;46307;-70
2021/07/25 03:00:09;;;;;;;;;3.00;2.00;;;;;21.54;100.00;100460.19;4960558;28;45411;-70
2021/07/25 03:02:36;;;;;;;;;3.00;3.00;;;;;21.49;100.00;100460.44;4960801;28;45385;-70
2021/07/25 03:05:02;;;;;;;;;3.25;2.25;;;;;21.41;100.00;100462.75;4960663;28;45367;-70
2021/07/25 03:07:28;;;;;;;;;5.00;2.50;;;;;21.35;100.00;100476.44;4958089;28;47618;-69
2021/07/25 03:09:53;;;;;;;;;3.00;3.00;;;;;21.30;100.00;100468.75;4960454;28;45222;-70
2021/07/25 03:12:18;;;;;;;;;2.00;2.00;;;;;21.23;100.00;100451.47;4960385;28;45490;-70
2021/07/25 03:14:44;;;;;;;;;3.50;2.50;;;;;21.24;100.00;100458.50;4960612;28;45460;-70
2021/07/25 03:20:31;;;;;;;;;3.25;2.00;;;;;21.12;100.00;100447.78;4960361;28;45322;-71
2021/07/25 03:22:56;;;;;;;;;3.00;3.00;;;;;21.04;100.00;100457.06;4960459;28;45526;-72
2021/07/25 03:25:21;;;;;;;;;3.50;2.00;;;;;20.85;100.00;100458.31;4960305;28;45335;-71
2021/07/25 03:27:47;;;;;;;;;4.75;4.00;;;;;20.70;100.00;100444.19;4960460;28;45303;-72
2021/07/25 03:30:13;;;;;;;;;2.00;2.00;;;;;20.65;100.00;100460.38;4959846;28;45334;-72
2021/07/25 03:32:38;;;;;;;;;3.00;3.00;;;;;20.55;100.00;100461.00;4960177;28;45384;-73
2021/07/25 03:35:04;;;;;;;;;1.75;1.75;;;;;20.38;100.00;100462.00;4960561;28;45377;-72
2021/07/25 03:37:29;;;;;;;;;2.00;1.00;;;;;20.14;100.00;100457.19;4960467;28;45646;-73
2021/07/25 03:39:55;;;;;;;;;2.00;1.00;;;;;19.92;100.00;100451.44;4960162;28;45392;-74
2021/07/25 03:42:21;;;;;;;;;2.25;1.00;;;;;19.81;100.00;100440.59;4960168;28;45385;-74
2021/07/25 03:44:46;;;;;;;;;1.00;0.50;;;;;19.85;100.00;100463.31;4960210;28;45441;-74
2021/07/25 03:50:34;;;;;;;;;3.25;3.00;;;;;19.75;100.00;100449.75;4959912;28;45547;-73
2021/07/25 03:53:00;;;;;;;;;2.00;2.00;;;;;19.74;100.00;100444.53;4960119;28;45364;-74
2021/07/25 03:55:25;;;;;;;;;2.75;2.25;;;;;19.63;100.00;100429.25;4960320;28;45344;-75
2021/07/25 03:57:52;;;;;;;;;2.00;1.75;;;;;19.74;100.00;100448.03;4959783;28;46265;-74
2021/07/25 04:00:18;;;;;;;;;1.50;1.25;;;;;19.71;100.00;100440.28;4959800;28;45372;-74
2021/07/25 04:02:43;;;;;;;;;3.00;2.00;;;;;19.68;100.00;100440.41;4960059;28;45381;-74
2021/07/25 04:05:09;;;;;;;;;2.00;2.00;;;;;19.72;100.00;100436.69;4959618;28;45389;-75
2021/07/25 04:07:35;;;;;;;;;2.25;2.00;;;;;19.73;100.00;100429.59;4959845;28;45483;-75
2021/07/25 04:10:00;;;;;;;;;1.00;1.00;;;;;19.71;100.00;100429.69;4959761;28;45258;-74
2021/07/25 04:12:26;;;;;;;;;0.50;0.50;;;;;19.78;100.00;100443.41;4959670;28;45624;-74
2021/07/25 04:14:51;;;;;;;;;3.50;1.25;;;;;19.73;100.00;100425.13;4960023;28;45253;-74
2021/07/25 04:20:38;;;;;;;;;2.00;2.00;;;;;19.77;100.00;100426.66;4959381;28;45503;-74
2021/07/25 04:23:04;;;;;;;;;2.00;2.00;;;;;19.71;100.00;100428.81;4959335;28;45372;-73
2021/07/25 04:25:31;;;;;;;;;2.00;2.00;;;;;19.70;100.00;100435.06;4959551;28;45434;-75
2021/07/25 04:28:00;;;;;;;;;3.00;2.00;;;;;19.67;100.00;100436.06;4959235;28;46683;-75
2021/07/25 04:30:29;;;;;;;;;1.75;1.75;;;;;19.57;100.00;100419.84;4959171;28;45668;-75
2021/07/25 04:32:56;;;;;;;;;1.50;1.00;;;;;19.58;100.00;100426.84;4959281;28;45280;-74
2021/07/25 04:35:22;;;;;;;;;1.00;1.00;;;;;19.54;100.00;100420.03;4959678;28;45392;-73
2021/07/25 04:37:49;;;;;;;;;1.00;1.00;;;;;19.58;100.00;100428.66;4959170;28;45305;-74
2021/07/25 04:40:16;;;;;;;;;2.00;1.50;;;;;19.55;100.00;100436.78;4959129;28;45640;-74
2021/07/25 04:42:54;;;;;;;;;2.00;2.00;;;;;19.26;100.00;100382.78;4959147;28;45379;-75
2021/07/25 04:51:51;;;;;;;;;2.00;2.00;;;;;19.47;100.00;100433.69;4959007;28;45566;-73
2021/07/25 04:54:17;;;;;;;;;5.00;3.00;;;;;19.45;100.00;100433.72;4958882;28;45382;-74
2021/07/25 04:56:58;;;;;;;;;4.50;3.00;;;;;19.48;100.00;100440.69;4959236;28;45451;-74
2021/07/25 04:59:28;;;;;;;;;3.25;3.25;;;;;19.49;100.00;100448.53;4957755;28;46471;-74
2021/07/25 05:01:59;;;;;;;;;3.75;3.00;;;;;19.50;100.00;100444.09;4958957;28;45277;-74
2021/07/25 05:04:27;;;;;;;;;3.00;2.00;;;;;19.49;100.00;100437.94;4958756;28;45197;-73
2021/07/25 05:06:52;;;;;;;;;4.00;3.00;;;;;19.46;100.00;100430.19;4959186;28;45357;-72
2021/07/25 05:09:18;;;;;;;;;3.50;3.50;;;;;19.52;100.00;100442.22;4958458;28;47147;-74
2021/07/25 05:11:52;;;;;;;;;6.25;4.50;;;;;19.48;100.00;100433.59;4958856;28;45396;-74
2021/07/25 05:14:36;;;;;;;;;4.75;4.50;;;;;19.51;100.00;100436.06;4958895;28;45346;-73
2021/07/25 05:17:11;;;;;;;;;3.50;3.50;;;;;19.55;100.00;100448.22;4959228;28;45378;-73
2021/07/25 05:19:48;;;;;;;;;5.50;4.50;;;;;19.59;100.00;100448.91;4958331;28;45681;-74
2021/07/25 05:22:27;;;;;;;;;6.50;5.50;;;;;19.58;100.00;100445.41;4958684;28;45277;-74
2021/07/25 05:24:54;;;;;;;;;5.00;5.00;;;;;19.58;100.00;100436.59;4958480;28;45452;-73
2021/07/25 05:27:22;;;;;;;;;6.50;5.00;;;;;19.60;100.00;100442.66;4958964;28;45340;-73
2021/07/25 05:29:58;;;;;;;;;4.75;4.75;;;;;19.60;100.00;100434.72;5129484;27;45707;-73
2021/07/25 05:32:23;;;;;;;;;4.75;4.50;;;;;19.65;100.00;100445.88;5101315;27;45330;-73
2021/07/25 05:34:49;;;;;;;;;4.00;4.00;;;;;19.65;100.00;100445.03;5098746;27;45286;-74
2021/07/25 05:37:14;;;;;;;;;5.00;5.00;;;;;19.67;100.00;100457.25;5104013;27;45505;-74
2021/07/25 05:39:40;;;;;;;;;5.00;5.00;;;;;19.66;100.00;100447.59;5095322;27;46127;-73
2021/07/25 05:42:05;;;;;;;;;6.00;5.00;;;;;19.66;100.00;100434.34;5102837;27;45372;-73
2021/07/25 05:44:31;;;;;;;;;6.50;5.00;;;;;19.66;100.00;100423.75;5093399;27;45416;-73
2021/07/25 05:46:58;;;;;;;;;5.00;5.00;;;;;19.73;100.00;100426.94;5103600;27;45497;-74
2021/07/25 05:49:23;;;;;;;;;5.75;5.50;;;;;19.75;100.00;100422.41;5106597;27;46343;-73
2021/07/25 05:51:48;;;;;;;;;5.25;5.00;;;;;19.75;100.00;100417.97;5108906;27;45426;-75
2021/07/25 05:54:14;;;;;;;;;7.00;6.50;;;;;19.94;100.00;100427.50;5093317;27;45387;-74
2021/07/25 05:56:39;;;;;;;;;7.25;6.00;;;;;20.05;100.00;100425.91;5102500;27;45450;-74
2021/07/25 05:59:06;;;;;;;;;7.00;6.00;;;;;20.13;100.00;100425.47;5108335;27;46484;-73
2021/07/25 06:01:32;;;;;;;;;6.25;6.00;;;;;20.28;100.00;100440.47;5108895;27;45489;-70
2021/07/25 06:03:57;;;;;;;;;6.25;5.00;;;;;20.29;100.00;100420.97;5102380;27;45506;-70
2021/07/25 06:06:22;;;;;;;;;7.50;6.25;;;;;20.40;100.00;100423.88;5097686;27;45372;-71
2021/07/25 06:08:48;;;;;;;;;7.00;6.00;;;;;20.49;100.00;100431.25;5105557;27;46001;-72
2021/07/25 06:11:21;;;;;;;;;7.50;7.50;;;;;20.54;100.00;100424.81;5109495;27;45296;-72
2021/07/25 06:13:46;;;;;;;;;6.00;5.25;;;;;20.67;100.00;100428.44;5105006;27;45401;-71
2021/07/25 06:16:12;;;;;;;;;5.25;4.75;;;;;20.77;100.00;100437.53;5093733;27;45529;-71
2021/07/25 06:18:37;;;;;;;;;5.00;5.00;;;;;20.75;100.00;100429.66;5101962;27;46119;-71
2021/07/25 06:21:02;;;;;;;;;4.00;4.00;;;;;20.83;100.00;100423.06;5102904;27;45382;-71
2021/07/25 06:23:28;;;;;;;;;7.75;7.00;;;;;20.93;100.00;100433.00;5101603;27;45436;-70
2021/07/25 06:25:53;;;;;;;;;5.50;5.50;;;;;20.97;100.00;100437.16;5104616;27;45291;-71
2021/07/25 06:28:18;;;;;;;;;7.00;6.50;;;;;20.93;100.00;100433.00;5092501;27;46632;-72
2021/07/25 06:30:44;;;;;;;;;8.75;6.50;;;;;20.91;100.00;100426.94;5092336;27;45418;-70
2021/07/25 06:33:10;;;;;;;;;7.50;6.00;;;;;20.95;100.00;100427.59;5098565;27;45371;-71
2021/07/25 06:35:40;;;;;;;;;6.75;6.50;;;;;20.98;100.00;100425.59;5096929;27;45353;-73
2021/07/25 06:38:11;;;;;;;;;7.25;6.00;;;;;21.02;100.00;100431.56;5108643;27;45431;-71
2021/07/25 06:40:38;;;;;;;;;7.50;6.50;;;;;21.08;100.00;100434.72;5093219;27;45256;-72
2021/07/25 06:43:05;;;;;;;;;6.75;5.50;;;;;21.04;100.00;100422.53;5092993;27;45388;-72
2021/07/25 06:45:32;;;;;;;;;6.25;6.00;;;;;21.15;100.00;100435.16;5077601;27;45495;-72
2021/07/25 06:47:57;;;;;;;;;6.00;5.75;;;;;21.12;100.00;100424.75;5087370;27;45502;-72
2021/07/25 06:50:25;;;;;;;;;8.00;7.00;;;;;21.20;100.00;100440.19;5099015;27;45451;-73
2021/07/25 06:52:53;;;;;;;;;8.25;6.75;;;;;21.16;100.00;100423.59;5097728;27;45408;-71
2021/07/25 06:55:20;;;;;;;;;8.25;8.00;;;;;21.25;100.00;100438.13;5098788;27;45512;-72
2021/07/25 06:57:46;;;;;;;;;6.50;5.75;;;;;21.26;100.00;100439.81;5091517;27;45488;-71
2021/07/25 07:00:12;;;;;;;;;7.50;7.00;;;;;21.29;100.00;100450.28;5081473;27;45420;-70
2021/07/25 07:02:54;;;;;;;;;8.00;6.75;;;;;21.29;100.00;100453.78;5092807;27;45316;-71
2021/07/25 07:05:37;;;;;;;;;8.25;7.75;;;;;21.30;100.00;100447.50;5085664;27;45404;-71
2021/07/25 07:08:05;;;;;;;;;8.50;7.50;;;;;21.37;100.00;100442.66;5078467;27;45424;-72
2021/07/25 07:10:35;;;;;;;;;6.75;6.25;;;;;21.45;100.00;100447.47;5092551;27;45783;-70
2021/07/25 07:13:03;;;;;;;;;6.75;6.75;;;;;21.48;100.00;100431.34;5088397;27;45424;-71
2021/07/25 07:15:30;;;;;;;;;9.50;8.00;;;;;21.74;100.00;100448.25;5085784;27;45422;-71
2021/07/25 07:17:57;;;;;;;;;7.75;7.25;;;;;21.90;100.00;100460.44;5092327;27;47255;-71
2021/07/25 07:20:23;;;;;;;;;7.75;6.50;;;;;22.10;100.00;100460.94;5078256;27;45610;-70
2021/07/25 07:22:57;;;;;;;;;10.25;8.00;;;;;22.24;100.00;100459.09;5083830;27;45523;-71
2021/07/25 07:25:25;;;;;;;;;9.50;8.00;;;;;22.37;100.00;100450.25;5098125;27;45493;-70
2021/07/25 07:27:51;;;;;;;;;8.00;6.75;;;;;22.58;100.00;100465.63;5081362;27;47164;-71
2021/07/25 07:30:16;;;;;;;;;7.75;6.25;;;;;22.66;100.00;100472.25;5097770;27;45567;-71
2021/07/25 07:32:42;;;;;;;;;7.75;5.75;;;;;22.71;100.00;100470.09;5097705;27;45480;-70
2021/07/25 07:35:08;;;;;;;;;7.00;7.00;;;;;22.64;100.00;100464.38;5093858;27;45395;-70
2021/07/25 07:37:33;;;;;;;;;7.50;7.00;;;;;22.69;100.00;100469.38;5097703;27;46747;-69
2021/07/25 07:39:58;;;;;;;;;7.00;7.00;;;;;22.79;100.00;100463.28;5090522;27;45530;-70
2021/07/25 07:42:24;;;;;;;;;8.50;8.50;;;;;22.85;100.00;100448.72;5097575;27;45641;-69
2021/07/25 07:44:50;;;;;;;;;7.75;7.00;;;;;23.00;100.00;100460.97;5094394;27;45555;-71
2021/07/25 07:47:16;;;;;;;;;7.50;7.50;;;;;23.09;100.00;100448.84;5096586;27;45494;-69
2021/07/25 07:49:41;;;;;;;;;10.00;9.25;;;;;23.16;100.00;100448.28;5096819;27;45484;-71
2021/07/25 07:52:07;;;;;;;;;9.75;8.50;;;;;23.23;100.00;100454.00;5081750;27;45449;-72
2021/07/25 07:54:33;;;;;;;;;10.00;9.00;;;;;23.21;100.00;100434.63;5083117;27;45556;-72
2021/07/25 07:56:59;;;;;;;;;9.25;7.00;;;;;23.33;100.00;100448.88;5092003;27;46410;-71
2021/07/25 07:59:25;;;;;;;;;8.50;8.00;;;;;23.38;100.00;100454.72;5096059;27;45481;-71
2021/07/25 08:01:51;;;;;;;;;11.00;8.75;;;;;23.34;100.00;100464.75;5097732;27;45315;-71
2021/07/25 08:04:17;;;;;;;;;9.25;9.00;;;;;23.28;100.00;100456.34;5083591;27;45446;-71
2021/07/25 08:06:42;;;;;;;;;8.00;7.25;;;;;23.21;100.00;100451.47;5090682;27;45567;-71
2021/07/25 08:09:07;;;;;;;;;7.00;7.00;;;;;23.18;100.00;100456.16;5096530;27;45495;-70
2021/07/25 08:11:33;;;;;;;;;8.25;8.00;;;;;23.16;100.00;100455.41;5097911;27;45374;-70
2021/07/25 08:13:58;;;;;;;;;10.00;8.50;;;;;23.08;100.00;100465.75;5097682;27;45376;-70
2021/07/25 08:16:24;;;;;;;;;7.50;7.50;;;;;23.02;100.00;100466.19;5095835;27;47017;-70
2021/07/25 08:18:49;;;;;;;;;9.00;7.75;;;;;22.98;100.00;100468.22;5096494;27;45438;-70
2021/07/25 08:21:14;;;;;;;;;10.50;10.50;;;;;22.95;100.00;100471.09;5092568;27;45431;-70
2021/07/25 08:23:40;;;;;;;;;8.00;7.00;;;;;22.98;100.00;100464.69;5085263;27;45482;-71
2021/07/25 08:26:05;;;;;;;;;10.00;8.75;;;;;22.95;100.00;100465.78;5095215;27;46399;-69
2021/07/25 08:28:31;;;;;;;;;11.25;9.00;;;;;22.99;100.00;100466.41;5084762;27;45494;-69
2021/07/25 08:30:57;;;;;;;;;8.00;7.00;;;;;23.02;100.00;100460.84;5078940;27;45486;-69
2021/07/25 08:33:22;;;;;;;;;8.75;8.00;;;;;23.06;100.00;100465.84;5089567;27;45397;-71
2021/07/25 08:35:48;;;;;;;;;10.00;9.75;;;;;23.02;100.00;100456.38;5084589;27;47397;-70
2021/07/25 08:38:13;;;;;;;;;7.75;7.75;;;;;22.98;100.00;100446.06;5076849;27;45359;-69
2021/07/25 08:40:40;;;;;;;;;11.00;9.00;;;;;23.06;100.00;100462.34;5095111;27;45374;-69
2021/07/25 08:43:12;;;;;;;;;8.25;8.00;;;;;23.08;100.00;100463.06;5093085;27;45505;-70
2021/07/25 08:45:44;;;;;;;;;9.75;8.75;;;;;22.98;100.00;100462.03;5094333;27;46436;-70
2021/07/25 08:48:13;;;;;;;;;9.00;7.75;;;;;23.05;100.00;100476.63;5096224;27;45747;-70
2021/07/25 08:51:03;;;;;;;;;10.00;9.00;;;;;23.03;100.00;100468.72;5095143;27;45452;-70
2021/07/25 08:53:34;;;;;;;;;8.00;8.00;;;;;23.02;100.00;100464.38;5092935;27;45509;-70
2021/07/25 08:56:01;;;;;;;;;8.00;7.00;;;;;23.07;100.00;100459.56;5086324;27;46635;-70
2021/07/25 08:58:28;;;;;;;;;9.25;8.50;;;;;23.21;100.00;100458.59;5078997;27;45475;-70
2021/07/25 09:00:54;;;;;;;;;10.00;8.00;;;;;23.31;100.00;100461.44;5096630;27;45429;-70
2021/07/25 09:03:21;;;;;;;;;11.00;7.75;;;;;23.41;100.00;100454.50;5085750;27;45412;-70
2021/07/25 09:05:47;;;;;;;;;9.75;9.00;;;;;23.60;100.00;100454.91;5094728;27;46570;-69
2021/07/25 09:08:13;;;;;;;;;10.00;7.25;;;;;23.72;100.00;100461.13;5094966;27;45435;-69
2021/07/25 09:10:40;;;;;;;;;9.50;8.75;;;;;23.78;100.00;100458.91;5092318;27;45338;-65
2021/07/25 09:13:05;;;;;;;;;9.75;9.00;;;;;23.80;100.00;100461.44;5080573;27;45284;-66
2021/07/25 09:15:33;;;;;;;;;7.75;7.75;;;;;23.82;100.00;100464.84;5092962;27;45383;-65
2021/07/25 09:18:01;;;;;;;;;12.00;10.00;;;;;23.87;100.00;100459.16;5088641;27;45503;-66
2021/07/25 09:20:32;;;;;;;;;7.25;7.00;;;;;23.94;100.00;100453.25;5076324;27;45414;-67
2021/07/25 09:23:02;;;;;;;;;9.25;9.00;;;;;24.05;100.00;100471.13;5090808;27;45407;-67
2021/07/25 09:25:30;;;;;;;;;8.75;8.50;;;;;24.05;100.00;100456.00;5077695;27;46221;-67
2021/07/25 09:27:55;;;;;;;;;9.25;7.00;;;;;24.00;100.00;100463.50;5092576;27;45559;-67
2021/07/25 09:30:22;;;;;;;;;7.50;6.50;;;;;23.95;100.00;100467.44;5085492;27;45511;-67
2021/07/25 09:32:52;;;;;;;;;7.50;6.00;;;;;23.88;100.00;100471.53;5094979;27;45462;-67
2021/07/25 09:35:30;;;;;;;;;6.00;6.00;;;;;23.96;100.00;100464.66;5083950;27;47292;-67
2021/07/25 09:38:09;;;;;;;;;8.50;7.75;;;;;24.14;100.00;100470.44;5080092;27;45658;-68
2021/07/25 09:40:40;;;;;;;;;9.75;8.00;;;;;24.31;100.00;100461.19;5085574;27;45449;-64
2021/07/25 09:43:16;;;;;;;;;6.00;5.00;;;;;24.42;100.00;100455.88;5096750;27;45273;-66
2021/07/25 09:45:47;;;;;;;;;4.75;4.75;;;;;24.56;100.00;100465.50;5096106;27;45417;-67
2021/07/25 09:48:13;;;;;;;;;4.50;4.50;;;;;24.60;100.00;100459.81;5094459;27;45725;-68
2021/07/25 09:50:38;;;;;;;;;7.25;7.00;;;;;24.69;100.00;100450.25;5094682;27;45528;-67
2021/07/25 09:53:04;;;;;;;;;6.00;5.00;;;;;24.93;100.00;100461.69;5082081;27;45303;-67
2021/07/25 09:55:30;;;;;;;;;5.50;5.25;;;;;25.15;100.00;100449.34;5092971;27;46550;-66
2021/07/25 09:57:56;;;;;;;;;3.50;3.50;;;;;25.55;100.00;100463.00;5095746;27;45446;-67
2021/07/25 10:00:22;;;;;;;;;6.00;4.00;;;;;26.02;100.00;100458.28;5091980;27;45663;-70
2021/07/25 10:02:47;;;;;;;;;5.00;4.25;;;;;26.60;100.00;100435.50;5094448;27;45353;-67
2021/07/25 10:05:21;;;;;;;;;4.50;3.50;;;;;27.54;100.00;100450.44;5094467;27;45488;-68
2021/07/25 10:07:48;;;;;;;;;5.25;4.25;;;;;28.41;100.00;100450.53;5094733;27;45399;-68
2021/07/25 10:10:16;;;;;;;;;4.25;3.25;;;;;29.57;100.00;100439.38;5089901;27;45824;-67
2021/07/25 10:12:43;;;;;;;;;4.00;4.00;;;;;30.82;100.00;100450.09;5085414;27;45423;-65
2021/07/25 10:15:16;;;;;;;;;3.75;2.00;;;;;31.42;100.00;100434.69;5094675;27;46345;-69
2021/07/25 10:17:44;;;;;;;;;4.50;4.25;;;;;31.34;100.00;100435.50;5083934;27;45879;-64
2021/07/25 10:20:17;;;;;;;;;3.75;3.00;;;;;30.64;100.00;100439.34;5093457;27;45420;-65
2021/07/25 10:22:48;;;;;;;;;6.00;5.00;;;;;31.03;100.00;100423.56;5084512;27;45423;-66
2021/07/25 10:25:15;;;;;;;;;5.25;5.00;;;;;31.16;100.00;100426.63;5078529;27;45620;-67
2021/07/25 10:27:44;;;;;;;;;7.00;6.50;;;;;30.86;100.00;100428.03;5091695;27;45683;-67
2021/07/25 10:30:11;;;;;;;;;4.00;3.50;;;;;30.46;100.00;100420.50;5091771;27;45482;-70
2021/07/25 10:32:38;;;;;;;;;5.75;5.25;;;;;29.91;100.00;100436.03;5098706;27;45373;-67
2021/07/25 10:35:06;;;;;;;;;6.25;5.25;;;;;29.35;100.00;100419.06;5091659;27;47065;-67
2021/07/25 10:37:39;;;;;;;;;6.75;6.75;;;;;29.46;100.00;100421.59;5093960;27;47092;-69
2021/07/25 10:40:07;;;;;;;;;4.25;3.25;;;;;30.26;100.00;100433.31;5093180;27;45423;-67
2021/07/25 10:42:38;;;;;;;;;8.00;7.00;;;;;30.01;100.00;100426.00;5079465;27;45322;-74
2021/07/25 10:45:04;;;;;;;;;8.50;8.50;;;;;29.17;100.00;100415.50;5103760;27;46677;-76
2021/07/25 10:47:31;;;;;;;;;8.50;7.25;;;;;28.65;100.00;100424.03;5093124;27;45677;-74
2021/07/25 10:50:04;;;;;;;;;7.25;6.75;;;;;28.50;100.00;100417.41;5097655;27;45465;-75
2021/07/25 10:53:05;;;;;;;;;4.50;4.50;;;;;28.78;100.00;100420.19;5094806;27;45450;-74
2021/07/25 10:55:42;;;;;;;;;10.25;8.25;;;;;30.47;100.00;100416.81;5056364;28;45748;-73
2021/07/25 10:58:15;;;;;;;;;7.50;6.25;;;;;31.94;100.00;100418.31;5054786;28;45417;-74
2021/07/25 11:00:43;;;;;;;;;4.25;4.25;;;;;31.67;100.00;100412.13;5054190;28;45479;-72
2021/07/25 11:03:10;;;;;;;;;8.75;7.50;;;;;31.17;100.00;100417.56;5055965;28;45640;-76
2021/07/25 11:06:13;;;;;;;;;8.50;7.50;;;;;32.45;100.00;100406.31;5055929;28;45581;-73
2021/07/25 11:08:46;;;;;;;;;7.00;7.00;;;;;32.32;100.00;100405.97;5055665;28;45523;-74
2021/07/25 11:11:29;;;;;;;;;7.75;7.50;;;;;31.02;100.00;100403.00;5023723;28;45480;-75
2021/07/25 11:13:55;;;;;;;;;8.50;8.00;;;;;29.90;100.00;100412.78;5055309;28;45409;-76
2021/07/25 11:16:29;;;;;;;;;8.25;6.50;;;;;29.02;100.00;100411.63;5054962;28;46436;-75
2021/07/25 11:18:56;;;;;;;;;5.25;4.75;;;;;28.22;100.00;100420.97;5054642;28;45633;-75
2021/07/25 11:21:33;;;;;;;;;7.50;7.25;;;;;27.49;100.00;100408.91;5055746;28;45477;-73
2021/07/25 11:23:59;;;;;;;;;10.50;10.50;;;;;27.07;100.00;100414.44;5055068;28;45620;-74
2021/07/25 11:26:35;;;;;;;;;10.75;8.75;;;;;26.70;100.00;100417.63;5054580;28;46360;-73
2021/07/25 11:29:06;;;;;;;;;10.75;8.75;;;;;26.30;100.00;100422.88;5053316;27;45432;-75
2021/07/25 11:31:40;;;;;;;;;10.50;10.25;;;;;25.76;100.00;100439.88;5096621;27;45487;-74
2021/07/25 11:34:07;;;;;;;;;13.00;11.50;;;;;25.05;100.00;100430.50;5087923;27;45432;-68
2021/07/25 11:36:34;;;;;;;;;13.50;11.75;;;;;24.37;100.00;100426.03;5094536;27;46227;-70
2021/07/25 11:39:00;;;;;;;;;13.75;11.00;;;;;23.80;100.00;100435.63;5087620;27;45493;-69
2021/07/25 11:41:39;;;;;;;;;15.25;13.00;;;;;23.29;100.00;100440.25;5085452;27;46114;-70
2021/07/25 11:44:09;;;;;;;;;17.25;13.75;;;;;22.91;100.00;100451.81;5086528;27;45525;-74
2021/07/25 11:46:36;;;;;;;;;12.00;10.25;;;;;22.71;100.00;100454.13;5096919;27;47389;-69
2021/07/25 11:49:03;;;;;;;;;14.00;13.00;;;;;22.52;100.00;100457.22;5087735;27;45597;-70
2021/07/25 11:51:28;;;;;;;;;9.75;9.00;;;;;22.23;100.00;100449.41;5092314;27;45419;-71
2021/07/25 11:53:54;;;;;;;;;13.75;12.50;;;;;22.08;100.00;100454.88;5090578;27;45477;-70
2021/07/25 11:56:19;;;;;;;;;10.75;9.50;;;;;21.87;100.00;100452.66;5076712;27;45417;-69
2021/07/25 11:59:08;;;;;;;;;12.75;10.75;;;;;21.70;100.00;100448.44;5089983;27;45530;-69
2021/07/25 12:01:35;;;;;;;;;9.00;8.00;;;;;21.58;100.00;100449.25;5091891;27;45418;-71
2021/07/25 12:04:42;;;;;;;;;10.25;9.00;;;;;21.49;100.00;100449.81;5093172;27;45473;-71